Time;durP1;ratioP1;P1;durP2;ratioP2;P2;SDS_P1;SDS_P2;PMS_P1;PMS_P2;Temp;Humidity;BMP_temperature;BMP_pressure;BME280_temperature;BME280_humidity;BME280_pressure;Samples;Min_cycle;Max_cycle;Signal;HPM_P1;HPM_P2
2024/01/26 00:01:53;;;;;;;;;;;7.70;99.90;;;;;;5059132;27;20617;-81
2024/01/26 00:04:19;;;;;;;;;;;7.90;99.90;;;;;;5088368;28;19981;-81
2024/01/26 00:06:45;;;;;;;;;;;8.00;99.90;;;;;;5088545;28;19932;-82
2024/01/26 00:09:11;;;;;;;;;;;7.60;99.90;;;;;;5089495;28;19928;-82
2024/01/26 00:11:37;;;;;;;;;;;7.80;99.90;;;;;;5086195;28;20633;-80
2024/01/26 00:14:03;;;;;;;;;;;7.80;99.90;;;;;;5088130;28;19927;-82
2024/01/26 00:16:28;;;;;;;;;;;6.50;99.90;;;;;;5102897;27;20397;-83
2024/01/26 00:18:54;;;;;;;;;;;7.70;99.90;;;;;;5079771;28;19924;-81
2024/01/26 00:21:20;;;;;;;;;;;7.80;99.90;;;;;;5069334;28;19935;-82
2024/01/26 00:23:45;;;;;;;;;;;7.80;99.90;;;;;;5068864;27;20038;-83
2024/01/26 00:26:14;;;;;;;;;;;7.70;99.90;;;;;;5088268;28;19928;-81
2024/01/26 00:28:40;;;;;;;;;;;7.30;99.90;;;;;;5086898;28;19924;-81
2024/01/26 00:31:06;;;;;;;;;;;8.10;99.90;;;;;;5070212;27;20046;-83
2024/01/26 00:33:33;;;;;;;;;;;8.10;99.90;;;;;;5086422;27;19982;-82
2024/01/26 00:35:59;;;;;;;;;;;7.90;99.90;;;;;;5071674;28;19977;-82
2024/01/26 00:38:24;;;;;;;;;;;8.00;99.90;;;;;;5070685;28;19923;-82
2024/01/26 00:40:51;;;;;;;;;;;8.10;99.90;;;;;;5086148;28;20489;-81
2024/01/26 00:43:17;;;;;;;;;;;8.00;99.90;;;;;;5084727;28;19966;-81
2024/01/26 00:45:43;;;;;;;;;;;7.80;99.90;;;;;;5068756;28;19949;-82
2024/01/26 00:48:08;;;;;;;;;;;7.70;99.90;;;;;;5105231;27;20386;-82
2024/01/26 00:50:34;;;;;;;;;;;7.70;99.90;;;;;;5086436;27;20381;-82
2024/01/26 00:53:00;;;;;;;;;;;8.00;99.90;;;;;;5087740;28;20026;-81
2024/01/26 00:55:29;;;;;;;;;;;8.00;99.90;;;;;;5083745;27;19928;-81
2024/01/26 00:57:55;;;;;;;;;;;8.10;99.90;;;;;;5086398;27;19928;-82
2024/01/26 01:00:21;;;;;;;;;;;8.10;99.90;;;;;;5087263;27;19970;-82
2024/01/26 01:02:48;;;;;;;;;;;7.70;99.90;;;;;;5084243;27;19936;-82
2024/01/26 01:05:14;;;;;;;;;;;7.90;99.90;;;;;;5099858;27;19928;-81
2024/01/26 01:07:39;;;;;;;;;;;7.70;99.90;;;;;;5067158;27;20643;-81
2024/01/26 01:10:05;;;;;;;;;;;8.10;99.90;;;;;;5086393;28;20299;-81
2024/01/26 01:12:31;;;;;;;;;;;8.00;99.90;;;;;;5101187;28;19940;-81
2024/01/26 01:14:58;;;;;;;;;;;8.00;99.90;;;;;;5068033;28;20346;-82
2024/01/26 01:17:25;;;;;;;;;;;7.90;99.90;;;;;;5068624;27;19975;-83
2024/01/26 01:19:50;;;;;;;;;;;7.70;99.90;;;;;;5068964;28;19928;-81
2024/01/26 01:22:16;;;;;;;;;;;7.80;99.90;;;;;;5084508;28;19931;-81
2024/01/26 01:24:42;;;;;;;;;;;8.00;99.90;;;;;;5069709;28;19920;-82
2024/01/26 01:27:08;;;;;;;;;;;8.00;99.90;;;;;;5086303;28;19934;-82
2024/01/26 01:29:34;;;;;;;;;;;7.80;99.90;;;;;;5086400;28;19943;-82
2024/01/26 01:31:59;;;;;;;;;;;8.00;99.90;;;;;;5086100;28;19927;-82
2024/01/26 01:34:25;;;;;;;;;;;7.70;99.90;;;;;;5084989;28;19965;-82
2024/01/26 01:36:51;;;;;;;;;;;7.70;99.90;;;;;;5082396;28;19949;-81
2024/01/26 01:39:16;;;;;;;;;;;8.10;99.90;;;;;;5086169;28;21214;-83
2024/01/26 01:41:46;;;;;;;;;;;7.80;99.90;;;;;;5069011;28;19923;-83
2024/01/26 01:44:11;;;;;;;;;;;8.10;99.90;;;;;;5099620;27;19942;-81
2024/01/26 01:46:37;;;;;;;;;;;8.10;99.90;;;;;;5082406;28;19927;-82
2024/01/26 01:49:02;;;;;;;;;;;7.90;99.90;;;;;;5066832;28;20032;-83
2024/01/26 01:51:31;;;;;;;;;;;8.10;99.90;;;;;;5099702;28;20409;-82
2024/01/26 01:53:58;;;;;;;;;;;8.00;99.90;;;;;;5083892;28;19931;-80
2024/01/26 01:56:24;;;;;;;;;;;8.10;99.90;;;;;;5066489;28;20040;-81
2024/01/26 01:58:51;;;;;;;;;;;7.90;99.90;;;;;;5082125;28;20030;-81
2024/01/26 02:01:17;;;;;;;;;;;7.90;99.90;;;;;;5075658;28;19924;-83
2024/01/26 02:03:43;;;;;;;;;;;8.20;99.90;;;;;;5083870;28;19919;-82
2024/01/26 02:06:08;;;;;;;;;;;8.00;99.90;;;;;;5083877;27;19988;-83
2024/01/26 02:08:34;;;;;;;;;;;8.50;99.90;;;;;;5085705;28;19932;-82
2024/01/26 02:10:59;;;;;;;;;;;8.40;99.90;;;;;;5083219;28;19981;-82
2024/01/26 02:13:25;;;;;;;;;;;8.30;99.90;;;;;;5102222;28;20538;-82
2024/01/26 02:15:51;;;;;;;;;;;8.20;99.90;;;;;;5086047;28;20027;-81
2024/01/26 02:18:19;;;;;;;;;;;8.10;99.90;;;;;;5103446;27;19963;-83
2024/01/26 02:20:45;;;;;;;;;;;8.20;99.90;;;;;;5085568;28;19974;-83
2024/01/26 02:23:13;;;;;;;;;;;8.50;99.90;;;;;;5085155;28;19931;-81
2024/01/26 02:25:39;;;;;;;;;;;8.40;99.90;;;;;;5084143;28;20399;-82
2024/01/26 02:28:05;;;;;;;;;;;8.50;99.90;;;;;;5066279;28;19928;-82
2024/01/26 02:30:33;;;;;;;;;;;8.40;99.90;;;;;;5079874;28;19928;-81
2024/01/26 02:32:59;;;;;;;;;;;8.40;99.90;;;;;;5085112;28;19967;-84
2024/01/26 02:35:25;;;;;;;;;;;8.50;99.90;;;;;;5082978;28;19966;-82
2024/01/26 02:37:50;;;;;;;;;;;8.30;99.90;;;;;;5085637;28;19928;-82
2024/01/26 02:40:16;;;;;;;;;;;8.30;99.90;;;;;;5066310;28;19934;-81
2024/01/26 02:42:42;;;;;;;;;;;8.30;99.90;;;;;;5084572;28;19931;-81
2024/01/26 02:45:07;;;;;;;;;;;8.50;99.90;;;;;;5082884;28;19935;-81
2024/01/26 02:47:33;;;;;;;;;;;8.20;99.90;;;;;;5065130;28;20708;-82
2024/01/26 02:49:58;;;;;;;;;;;8.20;99.90;;;;;;5068204;28;19928;-82
2024/01/26 02:52:24;;;;;;;;;;;8.40;99.90;;;;;;5082168;28;19979;-81
2024/01/26 02:54:51;;;;;;;;;;;8.40;99.90;;;;;;5099818;28;19954;-82
2024/01/26 02:57:17;;;;;;;;;;;8.70;99.90;;;;;;5082300;28;20061;-83
2024/01/26 02:59:43;;;;;;;;;;;8.70;99.90;;;;;;5084608;28;20014;-82
2024/01/26 03:02:08;;;;;;;;;;;8.50;99.90;;;;;;5066483;28;20015;-83
2024/01/26 03:04:34;;;;;;;;;;;8.70;99.90;;;;;;5081148;28;19939;-83
2024/01/26 03:06:59;;;;;;;;;;;8.40;99.90;;;;;;5082837;28;19974;-84
2024/01/26 03:09:25;;;;;;;;;;;8.60;99.90;;;;;;5066074;28;19938;-83
2024/01/26 03:11:51;;;;;;;;;;;8.70;99.90;;;;;;5101554;27;19927;-83
2024/01/26 03:14:18;;;;;;;;;;;8.60;99.90;;;;;;5066907;28;19924;-84
2024/01/26 03:16:44;;;;;;;;;;;8.50;99.90;;;;;;5084636;28;19935;-82
2024/01/26 03:19:09;;;;;;;;;;;8.40;99.90;;;;;;5069430;28;19928;-83
2024/01/26 03:21:42;;;;;;;;;;;8.60;99.90;;;;;;5064642;28;19923;-84
2024/01/26 03:24:08;;;;;;;;;;;8.40;99.90;;;;;;5082590;28;19924;-82
2024/01/26 03:26:34;;;;;;;;;;;8.40;99.90;;;;;;5082927;28;19927;-83
2024/01/26 03:29:06;;;;;;;;;;;8.60;99.90;;;;;;5083938;28;19935;-82
2024/01/26 03:31:34;;;;;;;;;;;8.70;99.90;;;;;;5080352;28;19928;-83
2024/01/26 03:34:00;;;;;;;;;;;8.80;99.90;;;;;;5084076;28;19923;-84
2024/01/26 03:36:27;;;;;;;;;;;8.70;99.90;;;;;;5082865;28;20629;-82
2024/01/26 03:38:53;;;;;;;;;;;8.60;99.90;;;;;;5083228;28;19981;-83
2024/01/26 03:41:18;;;;;;;;;;;8.50;99.90;;;;;;5082657;28;19924;-83
2024/01/26 03:43:44;;;;;;;;;;;8.50;99.90;;;;;;5083546;28;20042;-83
2024/01/26 03:46:10;;;;;;;;;;;8.50;99.90;;;;;;5067004;28;19927;-82
2024/01/26 03:48:37;;;;;;;;;;;8.80;99.90;;;;;;5067038;28;19930;-83
2024/01/26 03:51:02;;;;;;;;;;;8.70;99.90;;;;;;5083000;28;19934;-82
2024/01/26 03:53:28;;;;;;;;;;;8.50;99.90;;;;;;5099945;28;19923;-82
2024/01/26 03:55:54;;;;;;;;;;;8.90;99.90;;;;;;5083349;28;19924;-82
2024/01/26 03:58:20;;;;;;;;;;;8.60;99.90;;;;;;5048685;28;20193;-84
2024/01/26 04:00:45;;;;;;;;;;;8.50;99.90;;;;;;5055062;28;19976;-83
2024/01/26 04:03:11;;;;;;;;;;;8.60;99.90;;;;;;5056251;28;19928;-83
2024/01/26 04:05:37;;;;;;;;;;;8.90;99.90;;;;;;5068052;28;19927;-84
2024/01/26 04:08:03;;;;;;;;;;;8.90;99.90;;;;;;5099520;28;19935;-82
2024/01/26 04:10:29;;;;;;;;;;;8.90;99.90;;;;;;5098121;28;19989;-83
2024/01/26 04:12:55;;;;;;;;;;;8.90;99.90;;;;;;5064845;28;19984;-81
2024/01/26 04:15:21;;;;;;;;;;;8.90;99.90;;;;;;5066834;28;19934;-82
2024/01/26 04:17:47;;;;;;;;;;;8.80;99.90;;;;;;5068592;28;20047;-83
2024/01/26 04:20:18;;;;;;;;;;;8.90;99.90;;;;;;5084117;28;19939;-83
2024/01/26 04:22:44;;;;;;;;;;;8.90;99.90;;;;;;5101116;28;19928;-84
2024/01/26 04:25:09;;;;;;;;;;;9.00;99.90;;;;;;5085682;28;20338;-84
2024/01/26 04:27:35;;;;;;;;;;;8.60;99.90;;;;;;5085098;28;19932;-84
2024/01/26 04:30:01;;;;;;;;;;;9.00;99.90;;;;;;5065861;28;20599;-83
2024/01/26 04:32:27;;;;;;;;;;;9.00;99.90;;;;;;5069096;28;19931;-83
2024/01/26 04:34:52;;;;;;;;;;;8.80;99.90;;;;;;5085250;28;19927;-83
2024/01/26 04:37:18;;;;;;;;;;;9.00;99.90;;;;;;5088799;28;19931;-81
2024/01/26 04:39:43;;;;;;;;;;;9.00;99.90;;;;;;5089993;28;20170;-80
2024/01/26 04:42:09;;;;;;;;;;;8.90;99.90;;;;;;5092356;28;19927;-82
2024/01/26 04:44:35;;;;;;;;;;;8.50;99.90;;;;;;5074142;28;19930;-82
2024/01/26 04:47:01;;;;;;;;;;;8.70;99.90;;;;;;5091889;28;20272;-82
2024/01/26 04:49:26;;;;;;;;;;;8.80;99.90;;;;;;5058092;27;19996;-82
2024/01/26 04:51:52;;;;;;;;;;;8.60;99.90;;;;;;5089280;28;19924;-79
2024/01/26 04:54:18;;;;;;;;;;;8.50;99.90;;;;;;5089305;28;20291;-82
2024/01/26 04:56:43;;;;;;;;;;;8.80;99.90;;;;;;5086822;28;20302;-83
2024/01/26 04:59:09;;;;;;;;;;;8.90;99.90;;;;;;5088787;28;19924;-81
2024/01/26 05:01:35;;;;;;;;;;;8.90;99.90;;;;;;5089990;28;19963;-79
2024/01/26 05:04:03;;;;;;;;;;;8.50;99.90;;;;;;5075235;28;19928;-81
2024/01/26 05:06:28;;;;;;;;;;;8.90;99.90;;;;;;5074036;28;19963;-81
2024/01/26 05:08:55;;;;;;;;;;;8.60;99.90;;;;;;5075668;28;19924;-82
2024/01/26 05:11:20;;;;;;;;;;;9.00;99.90;;;;;;5074225;27;20510;-81
2024/01/26 05:13:46;;;;;;;;;;;8.70;99.90;;;;;;5112822;28;19931;-82
2024/01/26 05:16:12;;;;;;;;;;;8.70;99.90;;;;;;5093209;28;20037;-82
2024/01/26 05:18:38;;;;;;;;;;;8.80;99.90;;;;;;5091014;28;19923;-83
2024/01/26 05:21:03;;;;;;;;;;;9.00;99.90;;;;;;5071676;27;19928;-82
2024/01/26 05:23:29;;;;;;;;;;;9.10;99.90;;;;;;5073123;27;20022;-81
2024/01/26 05:25:56;;;;;;;;;;;8.90;99.90;;;;;;5089059;28;19931;-82
2024/01/26 05:28:22;;;;;;;;;;;8.90;99.90;;;;;;5070136;28;20359;-83
2024/01/26 05:30:47;;;;;;;;;;;8.70;99.90;;;;;;5088669;28;19971;-82
2024/01/26 05:33:13;;;;;;;;;;;9.10;99.90;;;;;;5104763;27;20029;-83
2024/01/26 05:35:39;;;;;;;;;;;8.90;99.90;;;;;;5089421;27;19932;-82
2024/01/26 05:38:04;;;;;;;;;;;9.00;99.90;;;;;;5086875;27;20019;-81
2024/01/26 05:40:31;;;;;;;;;;;8.90;99.90;;;;;;5089948;28;19950;-83
2024/01/26 05:42:57;;;;;;;;;;;8.80;99.90;;;;;;5055534;28;19932;-84
2024/01/26 05:45:23;;;;;;;;;;;8.80;99.90;;;;;;5090206;28;19931;-83
2024/01/26 05:47:48;;;;;;;;;;;8.80;99.90;;;;;;5089672;28;20039;-83
2024/01/26 05:50:17;;;;;;;;;;;8.90;99.90;;;;;;5057020;28;19933;-82
2024/01/26 05:52:43;;;;;;;;;;;9.00;99.90;;;;;;5104669;27;19928;-81
2024/01/26 05:55:08;;;;;;;;;;;9.10;99.90;;;;;;5106653;28;19981;-83
2024/01/26 05:57:34;;;;;;;;;;;9.00;99.90;;;;;;5092754;28;20443;-82
2024/01/26 06:00:00;;;;;;;;;;;9.00;99.90;;;;;;5089264;28;19928;-82
2024/01/26 06:02:26;;;;;;;;;;;9.40;99.90;;;;;;5086840;28;19939;-80
2024/01/26 06:04:51;;;;;;;;;;;9.30;99.90;;;;;;5083724;28;19924;-83
2024/01/26 06:07:17;;;;;;;;;;;9.20;99.90;;;;;;5085657;28;20270;-83
2024/01/26 06:09:42;;;;;;;;;;;9.20;99.90;;;;;;5103941;27;19928;-82
2024/01/26 06:12:08;;;;;;;;;;;9.40;99.90;;;;;;5069548;28;20390;-81
2024/01/26 06:14:37;;;;;;;;;;;9.10;99.90;;;;;;5087048;27;19938;-82
2024/01/26 06:17:02;;;;;;;;;;;9.50;99.90;;;;;;5102954;28;19934;-83
2024/01/26 06:19:28;;;;;;;;;;;9.40;99.90;;;;;;5084326;28;19924;-84
2024/01/26 06:21:54;;;;;;;;;;;9.20;99.90;;;;;;5068961;28;20267;-83
2024/01/26 06:24:19;;;;;;;;;;;9.30;99.90;;;;;;5084538;28;19935;-82
2024/01/26 06:26:45;;;;;;;;;;;9.30;99.90;;;;;;5085721;28;19932;-83
2024/01/26 06:29:11;;;;;;;;;;;9.40;99.90;;;;;;5082619;28;19928;-80
2024/01/26 06:31:36;;;;;;;;;;;9.20;99.90;;;;;;5084647;28;19920;-81
2024/01/26 06:34:02;;;;;;;;;;;9.10;99.90;;;;;;5067835;28;19931;-82
2024/01/26 06:36:28;;;;;;;;;;;8.90;99.90;;;;;;5084257;28;20331;-81
2024/01/26 06:38:53;;;;;;;;;;;9.30;99.90;;;;;;5101966;27;19937;-80
2024/01/26 06:41:19;;;;;;;;;;;8.90;99.90;;;;;;5082579;28;20410;-79
2024/01/26 06:43:51;;;;;;;;;;;9.00;99.90;;;;;;5090591;28;19936;-90
2024/01/26 06:46:23;;;;;;;;;;;9.40;99.90;;;;;;5077249;28;19935;-89
2024/01/26 06:48:50;;;;;;;;;;;9.10;99.90;;;;;;5054983;28;19992;-85
2024/01/26 06:51:15;;;;;;;;;;;9.40;99.90;;;;;;5070525;27;20434;-92
2024/01/26 06:53:55;;;;;;;;;;;9.10;99.90;;;;;;5079649;28;19980;-89
2024/01/26 06:56:21;;;;;;;;;;;9.20;99.90;;;;;;5089558;28;19944;-91
2024/01/26 06:58:52;;;;;;;;;;;9.20;99.90;;;;;;5075494;28;19928;-91
2024/01/26 07:01:20;;;;;;;;;;;9.20;99.90;;;;;;5090191;28;19931;-85
2024/01/26 07:03:46;;;;;;;;;;;9.60;99.90;;;;;;5082786;28;20619;-90
2024/01/26 07:06:12;;;;;;;;;;;9.20;99.90;;;;;;5089003;28;20282;-87
2024/01/26 07:08:37;;;;;;;;;;;9.40;99.90;;;;;;5068515;28;19977;-79
2024/01/26 07:11:03;;;;;;;;;;;9.50;99.90;;;;;;5085958;28;19928;-89
2024/01/26 07:13:29;;;;;;;;;;;9.60;99.90;;;;;;5073626;28;19931;-89
2024/01/26 07:15:54;;;;;;;;;;;9.20;99.90;;;;;;5075857;28;20332;-86
2024/01/26 07:18:20;;;;;;;;;;;9.20;99.90;;;;;;5072930;28;19928;-89
2024/01/26 07:20:45;;;;;;;;;;;9.60;99.90;;;;;;5059490;28;19972;-79
2024/01/26 07:23:11;;;;;;;;;;;9.60;99.90;;;;;;5083669;28;20122;-80
2024/01/26 07:25:37;;;;;;;;;;;9.20;99.90;;;;;;5080615;28;19936;-77
2024/01/26 07:28:05;;;;;;;;;;;9.60;99.90;;;;;;5066335;28;19946;-80
2024/01/26 07:30:32;;;;;;;;;;;9.20;99.90;;;;;;5085018;28;19928;-85
2024/01/26 07:32:57;;;;;;;;;;;9.20;99.90;;;;;;5087924;28;20488;-87
2024/01/26 07:35:23;;;;;;;;;;;9.50;99.90;;;;;;5084601;28;20056;-81
2024/01/26 07:37:49;;;;;;;;;;;9.50;99.90;;;;;;5049620;28;19970;-82
2024/01/26 07:40:15;;;;;;;;;;;9.50;99.90;;;;;;5102073;28;19935;-82
2024/01/26 07:42:44;;;;;;;;;;;9.10;99.90;;;;;;5066509;28;20742;-88
2024/01/26 07:45:09;;;;;;;;;;;9.40;99.90;;;;;;5069664;28;20020;-90
2024/01/26 07:47:36;;;;;;;;;;;9.00;99.90;;;;;;5059078;28;19927;-89
2024/01/26 07:50:03;;;;;;;;;;;9.40;99.90;;;;;;5070177;28;19928;-90
2024/01/26 07:52:29;;;;;;;;;;;8.90;99.90;;;;;;5068332;28;19924;-93
2024/01/26 07:54:54;;;;;;;;;;;8.90;99.90;;;;;;5053919;28;20019;-90
2024/01/26 07:57:21;;;;;;;;;;;9.40;99.90;;;;;;5075518;28;20014;-90
2024/01/26 07:59:51;;;;;;;;;;;9.00;99.90;;;;;;5075122;28;20286;-90
2024/01/26 08:02:17;;;;;;;;;;;9.30;99.90;;;;;;5070979;28;19924;-92
2024/01/26 08:04:43;;;;;;;;;;;9.00;99.90;;;;;;5071106;28;19935;-90
2024/01/26 08:07:09;;;;;;;;;;;9.40;99.90;;;;;;5090103;28;20454;-91
2024/01/26 08:09:35;;;;;;;;;;;9.40;99.90;;;;;;5068905;28;20599;-91
2024/01/26 08:12:01;;;;;;;;;;;9.20;99.90;;;;;;5056777;28;19928;-83
2024/01/26 08:14:26;;;;;;;;;;;9.00;99.90;;;;;;5058326;28;19934;-89
2024/01/26 08:16:58;;;;;;;;;;;9.20;99.90;;;;;;5073190;28;20035;-93
2024/01/26 08:19:24;;;;;;;;;;;8.90;99.90;;;;;;5069737;28;20490;-82
2024/01/26 08:21:49;;;;;;;;;;;9.20;99.90;;;;;;5084425;28;19924;-82
2024/01/26 08:24:15;;;;;;;;;;;8.90;99.90;;;;;;5068746;28;19932;-82
2024/01/26 08:26:40;;;;;;;;;;;9.20;99.90;;;;;;5085540;27;19971;-83
2024/01/26 08:29:06;;;;;;;;;;;8.70;99.90;;;;;;5074005;28;20286;-82
2024/01/26 08:31:32;;;;;;;;;;;8.90;99.90;;;;;;5088858;28;19931;-81
2024/01/26 08:33:57;;;;;;;;;;;9.10;99.90;;;;;;5072607;28;19928;-80
2024/01/26 08:36:23;;;;;;;;;;;8.80;99.90;;;;;;5088570;28;20379;-79
2024/01/26 08:38:50;;;;;;;;;;;8.50;99.90;;;;;;5070063;28;19928;-80
2024/01/26 08:41:17;;;;;;;;;;;8.40;99.90;;;;;;5085942;28;19932;-79
2024/01/26 08:43:42;;;;;;;;;;;8.10;99.90;;;;;;5101771;27;19955;-80
2024/01/26 08:46:08;;;;;;;;;;;8.10;99.90;;;;;;5067603;28;20340;-79
2024/01/26 08:48:34;;;;;;;;;;;8.00;99.90;;;;;;5101239;27;19932;-78
2024/01/26 08:51:00;;;;;;;;;;;8.00;99.90;;;;;;5068368;28;20010;-80
2024/01/26 08:53:25;;;;;;;;;;;7.90;99.90;;;;;;5051600;28;19931;-80
2024/01/26 08:55:51;;;;;;;;;;;8.10;99.90;;;;;;5101357;28;19931;-78
2024/01/26 08:58:17;;;;;;;;;;;8.30;99.90;;;;;;5083362;27;19920;-79
2024/01/26 09:00:42;;;;;;;;;;;8.00;99.90;;;;;;5085231;28;19963;-79
2024/01/26 09:03:08;;;;;;;;;;;8.20;99.90;;;;;;5069460;28;20014;-85
2024/01/26 09:05:34;;;;;;;;;;;7.90;99.90;;;;;;5055332;28;19939;-79
2024/01/26 09:07:59;;;;;;;;;;;8.20;99.90;;;;;;5085945;28;19931;-78
2024/01/26 09:10:26;;;;;;;;;;;8.20;99.90;;;;;;5086350;28;20320;-79
2024/01/26 09:12:52;;;;;;;;;;;8.30;99.90;;;;;;5103620;27;19920;-79
2024/01/26 09:15:17;;;;;;;;;;;8.00;99.90;;;;;;5086581;28;19943;-79
2024/01/26 09:17:43;;;;;;;;;;;8.10;99.90;;;;;;5085482;28;19931;-79
2024/01/26 09:20:10;;;;;;;;;;;8.10;99.90;;;;;;5053436;28;20279;-79
2024/01/26 09:22:36;;;;;;;;;;;8.30;99.90;;;;;;5086465;28;19992;-77
2024/01/26 09:25:03;;;;;;;;;;;7.90;99.90;;;;;;5069841;28;19928;-77
2024/01/26 09:27:29;;;;;;;;;;;8.30;99.90;;;;;;5084352;27;19930;-78
2024/01/26 09:29:55;;;;;;;;;;;7.90;99.90;;;;;;5100327;28;19931;-78
2024/01/26 09:32:21;;;;;;;;;;;8.10;99.90;;;;;;5104440;27;19928;-78
2024/01/26 09:34:56;;;;;;;;;;;8.20;99.90;;;;;;5104239;28;20402;-78
2024/01/26 09:37:22;;;;;;;;;;;7.90;99.90;;;;;;5086271;28;19924;-78
2024/01/26 09:39:48;;;;;;;;;;;7.90;99.90;;;;;;5069837;28;19927;-79
2024/01/26 09:42:14;;;;;;;;;;;8.00;99.90;;;;;;5085627;28;19928;-78
2024/01/26 09:44:39;;;;;;;;;;;7.90;99.90;;;;;;5068805;28;20561;-78
2024/01/26 09:47:06;;;;;;;;;;;7.90;99.90;;;;;;5087385;28;19927;-78
2024/01/26 09:49:32;;;;;;;;;;;8.40;99.90;;;;;;5084934;28;19935;-77
2024/01/26 09:52:01;;;;;;;;;;;8.10;99.90;;;;;;5085336;28;19932;-78
2024/01/26 09:54:28;;;;;;;;;;;8.50;99.90;;;;;;5086285;28;19928;-78
2024/01/26 09:56:54;;;;;;;;;;;8.40;99.90;;;;;;5085349;28;20436;-77
2024/01/26 09:59:20;;;;;;;;;;;8.50;99.90;;;;;;5086791;28;20035;-79
2024/01/26 10:01:47;;;;;;;;;;;8.70;99.90;;;;;;5068318;28;20022;-78
2024/01/26 10:04:16;;;;;;;;;;;8.70;99.90;;;;;;5084966;28;19923;-78
2024/01/26 10:06:41;;;;;;;;;;;8.60;99.90;;;;;;5070451;27;20012;-77
2024/01/26 10:09:09;;;;;;;;;;;8.60;99.90;;;;;;5085882;28;20077;-78
2024/01/26 10:11:35;;;;;;;;;;;8.60;99.90;;;;;;5083697;28;20055;-77
2024/01/26 10:14:01;;;;;;;;;;;8.40;99.90;;;;;;5083543;28;19950;-77
2024/01/26 10:16:27;;;;;;;;;;;8.60;99.90;;;;;;5105096;28;19934;-78
2024/01/26 10:18:52;;;;;;;;;;;9.10;99.90;;;;;;5086978;28;19934;-79
2024/01/26 10:21:20;;;;;;;;;;;9.50;99.90;;;;;;5087417;28;19930;-79
2024/01/26 10:23:46;;;;;;;;;;;10.10;99.90;;;;;;5086643;28;19938;-77
2024/01/26 10:26:12;;;;;;;;;;;9.90;99.90;;;;;;5073922;28;19928;-77
2024/01/26 10:28:39;;;;;;;;;;;9.90;99.50;;;;;;5069827;28;19939;-78
2024/01/26 10:31:05;;;;;;;;;;;9.40;99.60;;;;;;5070461;27;19932;-78
2024/01/26 10:33:34;;;;;;;;;;;9.20;99.90;;;;;;5103816;28;19928;-80
2024/01/26 10:36:05;;;;;;;;;;;9.10;99.90;;;;;;5068681;28;20052;-80
2024/01/26 10:38:32;;;;;;;;;;;9.10;99.90;;;;;;5085024;27;20535;-80
2024/01/26 10:41:00;;;;;;;;;;;8.80;99.90;;;;;;5086389;28;19931;-79
2024/01/26 10:43:26;;;;;;;;;;;8.90;99.90;;;;;;5101117;27;19932;-80
2024/01/26 10:45:52;;;;;;;;;;;8.40;99.90;;;;;;5082493;28;19934;-78
2024/01/26 10:48:18;;;;;;;;;;;8.30;99.90;;;;;;5086046;28;19927;-89
2024/01/26 10:50:45;;;;;;;;;;;8.60;99.90;;;;;;5073814;28;19941;-88
2024/01/26 10:53:12;;;;;;;;;;;8.40;99.90;;;;;;5067402;28;19928;-79
2024/01/26 10:55:40;;;;;;;;;;;8.30;99.90;;;;;;5104547;27;20012;-79
2024/01/26 10:58:10;;;;;;;;;;;8.50;99.90;;;;;;5085989;28;20309;-80
2024/01/26 11:00:36;;;;;;;;;;;8.30;99.90;;;;;;5085316;28;19931;-87
2024/01/26 11:03:05;;;;;;;;;;;8.10;99.90;;;;;;5087765;28;19928;-87
2024/01/26 11:05:31;;;;;;;;;;;7.30;99.90;;;;;;5071652;27;20929;-86
2024/01/26 11:07:58;;;;;;;;;;;8.20;99.90;;;;;;5091830;28;19931;-90
2024/01/26 11:10:25;;;;;;;;;;;7.90;99.90;;;;;;5087532;28;19932;-88
2024/01/26 11:13:02;;;;;;;;;;;8.20;99.90;;;;;;5087722;28;19928;-87
2024/01/26 11:15:28;;;;;;;;;;;7.90;99.90;;;;;;5087739;28;19932;-82
2024/01/26 11:17:56;;;;;;;;;;;7.90;99.90;;;;;;5089968;28;20012;-84
2024/01/26 11:20:41;;;;;;;;;;;8.20;99.90;;;;;;5108728;27;20460;-79
2024/01/26 11:23:08;;;;;;;;;;;8.10;99.90;;;;;;5088146;28;19932;-78
2024/01/26 11:25:37;;;;;;;;;;;7.90;99.90;;;;;;5085397;28;19928;-79
2024/01/26 11:28:05;;;;;;;;;;;7.70;99.90;;;;;;5102440;28;19927;-80
2024/01/26 11:30:30;;;;;;;;;;;8.10;99.90;;;;;;5086163;28;19931;-80
2024/01/26 11:32:57;;;;;;;;;;;7.70;99.90;;;;;;5065851;28;19928;-77
2024/01/26 11:35:28;;;;;;;;;;;7.90;99.90;;;;;;5070686;28;19974;-81
2024/01/26 11:37:56;;;;;;;;;;;8.00;99.90;;;;;;5089749;28;19974;-82
2024/01/26 11:40:23;;;;;;;;;;;7.70;99.90;;;;;;5088211;28;19927;-78
2024/01/26 11:42:52;;;;;;;;;;;8.00;99.90;;;;;;5086968;28;19975;-80
2024/01/26 11:45:39;;;;;;;;;;;7.80;99.90;;;;;;5054126;28;19927;-82
2024/01/26 11:48:05;;;;;;;;;;;7.80;99.90;;;;;;5063587;28;19927;-86
2024/01/26 11:50:31;;;;;;;;;;;8.20;99.90;;;;;;5073449;28;20331;-88
2024/01/26 11:52:56;;;;;;;;;;;8.20;99.90;;;;;;5090913;28;19927;-87
2024/01/26 11:55:22;;;;;;;;;;;7.90;99.90;;;;;;5093302;28;19924;-87
2024/01/26 11:57:48;;;;;;;;;;;7.90;99.90;;;;;;5061771;28;20015;-82
2024/01/26 12:00:14;;;;;;;;;;;7.80;99.90;;;;;;5075812;28;19928;-80
2024/01/26 12:02:40;;;;;;;;;;;8.10;99.90;;;;;;5071730;28;19927;-88
2024/01/26 12:05:06;;;;;;;;;;;8.10;99.90;;;;;;5085699;28;19970;-79
2024/01/26 12:07:32;;;;;;;;;;;7.90;99.90;;;;;;5105266;28;19924;-76
2024/01/26 12:10:01;;;;;;;;;;;8.00;99.90;;;;;;5056971;28;20090;-78
2024/01/26 12:12:27;;;;;;;;;;;7.70;99.90;;;;;;5088065;28;19934;-82
2024/01/26 12:14:53;;;;;;;;;;;7.80;99.90;;;;;;5071906;28;20367;-74
2024/01/26 12:17:20;;;;;;;;;;;8.10;99.90;;;;;;5069823;28;19934;-74
2024/01/26 12:19:47;;;;;;;;;;;7.90;99.90;;;;;;5103144;27;20360;-85
2024/01/26 12:22:12;;;;;;;;;;;8.20;99.90;;;;;;5073090;27;19928;-75
2024/01/26 12:24:39;;;;;;;;;;;8.20;99.90;;;;;;5091182;28;19938;-85
2024/01/26 12:27:05;;;;;;;;;;;7.60;99.90;;;;;;5089605;28;19963;-81
2024/01/26 12:29:32;;;;;;;;;;;8.00;99.90;;;;;;5090847;28;19962;-73
2024/01/26 12:32:18;;;;;;;;;;;8.00;99.90;;;;;;5109398;28;20294;-79
2024/01/26 12:34:44;;;;;;;;;;;7.50;99.90;;;;;;5086504;28;19924;-80
2024/01/26 12:37:11;;;;;;;;;;;7.10;99.90;;;;;;5087067;27;19934;-79
2024/01/26 12:39:37;;;;;;;;;;;7.20;99.90;;;;;;5071160;28;20045;-79
2024/01/26 12:42:03;;;;;;;;;;;7.60;99.90;;;;;;5069623;28;19927;-85
2024/01/26 12:44:29;;;;;;;;;;;7.00;99.90;;;;;;5084942;28;19970;-82
2024/01/26 12:46:55;;;;;;;;;;;7.40;99.90;;;;;;5087487;27;20033;-79
2024/01/26 12:49:21;;;;;;;;;;;8.10;99.90;;;;;;5085240;27;19949;-82
2024/01/26 12:51:47;;;;;;;;;;;7.10;99.90;;;;;;5092340;28;20335;-83
2024/01/26 12:54:12;;;;;;;;;;;7.80;99.90;;;;;;5058368;28;19931;-84
2024/01/26 12:56:38;;;;;;;;;;;7.00;99.90;;;;;;5072414;28;19931;-83
2024/01/26 12:59:05;;;;;;;;;;;7.30;99.90;;;;;;5055732;27;19936;-81
2024/01/26 13:01:30;;;;;;;;;;;7.10;99.90;;;;;;5070125;28;19928;-80
2024/01/26 13:03:56;;;;;;;;;;;7.60;99.90;;;;;;5055414;28;19934;-79
2024/01/26 13:06:22;;;;;;;;;;;7.40;99.90;;;;;;5090947;28;19923;-80
2024/01/26 13:08:47;;;;;;;;;;;7.50;99.90;;;;;;5092091;28;19923;-81
2024/01/26 13:11:14;;;;;;;;;;;7.00;99.90;;;;;;5088939;28;20310;-81
2024/01/26 13:13:40;;;;;;;;;;;7.60;99.90;;;;;;5073294;28;20739;-81
2024/01/26 13:16:07;;;;;;;;;;;7.50;99.90;;;;;;5087960;28;19935;-80
2024/01/26 13:18:33;;;;;;;;;;;7.80;99.90;;;;;;5105307;28;19924;-81
2024/01/26 13:20:59;;;;;;;;;;;7.50;99.90;;;;;;5072940;28;19927;-81
2024/01/26 13:23:24;;;;;;;;;;;7.40;99.90;;;;;;5106023;28;19984;-81
2024/01/26 13:25:52;;;;;;;;;;;7.10;99.90;;;;;;5089126;28;20063;-82
2024/01/26 13:28:18;;;;;;;;;;;8.00;99.90;;;;;;5072664;28;19935;-83
2024/01/26 13:30:44;;;;;;;;;;;8.00;99.90;;;;;;5070707;28;20320;-81
2024/01/26 13:33:10;;;;;;;;;;;7.40;99.90;;;;;;5086428;28;19931;-82
2024/01/26 13:35:36;;;;;;;;;;;7.90;99.90;;;;;;5086233;28;20784;-80
2024/01/26 13:38:02;;;;;;;;;;;8.00;99.90;;;;;;5051941;28;20410;-80
2024/01/26 13:40:28;;;;;;;;;;;7.90;99.90;;;;;;5085134;27;20271;-79
2024/01/26 13:42:53;;;;;;;;;;;7.40;99.90;;;;;;5084061;28;20020;-82
2024/01/26 13:45:19;;;;;;;;;;;7.30;99.90;;;;;;5083839;28;19923;-81
2024/01/26 13:47:45;;;;;;;;;;;7.80;99.90;;;;;;5102008;28;20071;-81
2024/01/26 13:50:10;;;;;;;;;;;7.50;99.90;;;;;;5067026;28;19924;-80
2024/01/26 13:52:36;;;;;;;;;;;7.20;99.90;;;;;;5084290;28;20595;-81
2024/01/26 13:55:05;;;;;;;;;;;7.10;99.90;;;;;;5098798;27;19964;-80
2024/01/26 13:57:30;;;;;;;;;;;7.10;99.90;;;;;;5084789;28;19970;-82
2024/01/26 14:00:00;;;;;;;;;;;7.00;99.90;;;;;;5100386;27;19931;-80
2024/01/26 14:02:26;;;;;;;;;;;7.80;99.90;;;;;;5069499;28;19934;-81
2024/01/26 14:04:51;;;;;;;;;;;7.60;99.90;;;;;;5069618;28;19928;-84
2024/01/26 14:07:17;;;;;;;;;;;7.60;99.90;;;;;;5085533;27;19931;-86
2024/01/26 14:09:43;;;;;;;;;;;7.30;99.90;;;;;;5088187;27;19923;-89
2024/01/26 14:12:08;;;;;;;;;;;7.10;99.90;;;;;;5071488;28;19931;-90
2024/01/26 14:14:34;;;;;;;;;;;7.10;99.90;;;;;;5053571;27;19927;-80
2024/01/26 14:17:00;;;;;;;;;;;7.60;99.90;;;;;;5091047;28;19924;-90
2024/01/26 14:19:26;;;;;;;;;;;6.80;99.90;;;;;;5090548;28;20294;-88
2024/01/26 14:21:54;;;;;;;;;;;7.50;99.90;;;;;;5084584;28;19979;-83
2024/01/26 14:24:20;;;;;;;;;;;7.60;99.90;;;;;;5086142;28;20039;-82
2024/01/26 14:26:46;;;;;;;;;;;5.90;99.90;;;;;;5085077;28;19930;-82